createdAt,value
2022-12-12T00:00:43.859Z,100094.56
2022-12-12T00:03:11.326Z,100094.88
2022-12-12T00:05:38.655Z,100092.19
2022-12-12T00:08:05.819Z,100091.44
2022-12-12T00:10:33.785Z,100102.13
2022-12-12T00:13:00.678Z,100094.13
2022-12-12T00:15:29.788Z,100077.94
2022-12-12T00:17:56.673Z,100084.25
2022-12-12T00:20:23.656Z,100087.84
2022-12-12T00:22:50.483Z,100077.66
2022-12-12T00:25:17.414Z,100086.84
2022-12-12T00:27:44.378Z,100087.72
2022-12-12T00:30:11.826Z,100081.66
2022-12-12T00:32:38.668Z,100084.41
2022-12-12T00:35:06.304Z,100080.88
2022-12-12T00:37:33.154Z,100080.59
2022-12-12T00:40:00.060Z,100084.63
2022-12-12T00:42:27.287Z,100087.19
2022-12-12T00:44:54.281Z,100080.03
2022-12-12T00:47:21.083Z,100079.50
2022-12-12T00:49:47.893Z,100080.81
2022-12-12T00:52:14.734Z,100076.47
2022-12-12T00:54:41.604Z,100075.31
2022-12-12T00:57:08.506Z,100076.75
2022-12-12T00:59:35.384Z,100082.03
2022-12-12T01:02:02.240Z,100089.72
2022-12-12T01:04:29.083Z,100077.25
2022-12-12T01:06:55.939Z,100083.34
2022-12-12T01:09:22.811Z,100090.53
2022-12-12T01:11:49.597Z,100083.63
2022-12-12T01:14:16.443Z,100088.09
2022-12-12T01:16:43.443Z,100090.63
2022-12-12T01:19:10.270Z,100092.34
2022-12-12T01:21:37.303Z,100092.94
2022-12-12T01:24:04.784Z,100090.38
2022-12-12T01:26:31.751Z,100102.66
2022-12-12T01:28:58.646Z,100104.41
2022-12-12T01:31:25.649Z,100101.34
2022-12-12T01:33:52.527Z,100100.09
2022-12-12T01:36:22.642Z,100104.59
2022-12-12T01:38:52.979Z,100105.47
2022-12-12T01:41:21.303Z,100102.22
2022-12-12T01:43:48.922Z,100103.81
2022-12-12T01:46:21.736Z,100104.28
2022-12-12T01:49:17.194Z,100102.97
2022-12-12T01:51:45.694Z,100116.34
2022-12-12T01:54:21.533Z,100113.44
2022-12-12T01:56:49.610Z,100119.84
2022-12-12T01:59:19.489Z,100112.25
2022-12-12T02:01:46.946Z,100118.03
2022-12-12T02:04:17.118Z,100111.75
2022-12-12T02:06:44.317Z,100109.69
2022-12-12T02:09:14.035Z,100113.97
2022-12-12T02:11:49.227Z,100114.22
2022-12-12T02:14:22.674Z,100105.28
2022-12-12T02:17:55.127Z,100110.63
2022-12-12T02:21:18.926Z,100110.44
2022-12-12T02:24:30.302Z,100116.50
2022-12-12T02:27:58.755Z,100109.66
2022-12-12T02:30:59.626Z,100112.06
2022-12-12T02:34:11.177Z,100110.88
2022-12-12T02:37:03.881Z,100118.28
2022-12-12T02:40:07.158Z,100114.72
2022-12-12T02:43:00.749Z,100111.69
2022-12-12T02:45:37.726Z,100120.09
2022-12-12T02:48:19.984Z,100129.22
2022-12-12T02:50:51.804Z,100131.53
2022-12-12T02:53:23.936Z,100133.00
2022-12-12T02:56:02.694Z,100138.16
2022-12-12T02:58:30.425Z,100144.13
2022-12-12T03:01:30.091Z,100145.03
2022-12-12T03:04:24.999Z,100144.78
2022-12-12T03:07:24.829Z,100147.03
2022-12-12T03:10:13.738Z,100140.16
2022-12-12T03:13:23.249Z,100144.34
2022-12-12T03:16:18.944Z,100149.34
2022-12-12T03:19:13.732Z,100146.13
2022-12-12T03:22:03.712Z,100143.16
2022-12-12T03:24:52.451Z,100145.50
2022-12-12T03:27:36.267Z,100147.81
2022-12-12T03:30:11.517Z,100146.63
2022-12-12T03:32:48.404Z,100144.38
2022-12-12T03:35:39.785Z,100142.31
2022-12-12T03:38:17.872Z,100139.56
2022-12-12T03:40:50.275Z,100143.44
2022-12-12T03:43:22.704Z,100143.44
2022-12-12T03:46:09.790Z,100145.34
2022-12-12T03:49:00.729Z,100143.97
2022-12-12T03:51:35.010Z,100144.72
2022-12-12T03:54:18.231Z,100138.84
2022-12-12T03:57:11.798Z,100152.75
2022-12-12T04:00:08.962Z,100150.53
2022-12-12T04:03:05.674Z,100143.94
2022-12-12T04:06:13.098Z,100146.41
2022-12-12T04:09:00.521Z,100141.63
2022-12-12T04:12:10.645Z,100146.41
2022-12-12T04:15:19.613Z,100138.41
2022-12-12T04:18:26.768Z,100138.78
2022-12-12T04:21:52.717Z,100147.22
2022-12-12T04:24:51.124Z,100141.69
2022-12-12T04:27:46.821Z,100139.75
2022-12-12T04:30:15.939Z,100143.69
2022-12-12T04:33:01.892Z,100142.31
2022-12-12T04:35:39.506Z,100144.56
2022-12-12T04:38:22.735Z,100149.47
2022-12-12T04:40:57.534Z,100139.53
2022-12-12T04:43:37.338Z,100147.47
2022-12-12T04:46:13.630Z,100155.75
2022-12-12T04:49:07.134Z,100149.41
2022-12-12T04:51:42.483Z,100151.66
2022-12-12T04:54:31.364Z,100149.19
2022-12-12T04:57:01.905Z,100158.44
2022-12-12T04:59:29.638Z,100156.09
2022-12-12T05:02:11.038Z,100149.41
2022-12-12T05:04:53.343Z,100161.34
2022-12-12T05:07:43.386Z,100165.16
2022-12-12T05:10:20.124Z,100154.19
2022-12-12T05:12:53.837Z,100152.38
2022-12-12T05:15:21.172Z,100157.59
2022-12-12T05:18:02.070Z,100168.28
2022-12-12T05:20:30.676Z,100168.22
2022-12-12T05:22:57.548Z,100168.63
2022-12-12T05:25:24.489Z,100167.44
2022-12-12T05:27:51.362Z,100166.56
2022-12-12T05:30:18.288Z,100164.22
2022-12-12T05:32:45.134Z,100169.75
2022-12-12T05:35:12.447Z,100176.38
2022-12-12T05:37:39.592Z,100182.88
2022-12-12T05:40:10.962Z,100185.63
2022-12-12T05:42:38.096Z,100188.34
2022-12-12T05:45:07.331Z,100185.38
2022-12-12T05:47:34.297Z,100182.44
2022-12-12T05:50:01.613Z,100178.56
2022-12-12T05:52:28.479Z,100179.94
2022-12-12T05:54:55.521Z,100185.00
2022-12-12T05:57:22.782Z,100184.78
2022-12-12T05:59:49.733Z,100187.81
2022-12-12T06:02:17.172Z,100192.41
2022-12-12T06:04:44.512Z,100183.34
2022-12-12T06:07:11.404Z,100183.34
2022-12-12T06:09:38.336Z,100184.00
2022-12-12T06:12:05.513Z,100190.81
2022-12-12T06:14:32.298Z,100196.72
2022-12-12T06:16:59.216Z,100196.91
2022-12-12T06:19:26.069Z,100197.91
2022-12-12T06:21:52.898Z,100202.28
2022-12-12T06:24:20.120Z,100208.78
2022-12-12T06:26:47.053Z,100201.00
2022-12-12T06:29:14.864Z,100201.09
2022-12-12T06:31:41.985Z,100202.44
2022-12-12T06:34:08.868Z,100203.13
2022-12-12T06:36:36.667Z,100207.13
2022-12-12T06:39:04.290Z,100215.47
2022-12-12T06:41:32.325Z,100212.56
2022-12-12T06:43:59.458Z,100213.25
2022-12-12T06:46:29.322Z,100221.03
2022-12-12T06:48:57.076Z,100219.06
2022-12-12T06:51:28.226Z,100223.28
2022-12-12T06:53:56.700Z,100218.22
2022-12-12T06:56:26.486Z,100216.91
2022-12-12T06:58:54.061Z,100227.91
2022-12-12T07:01:23.327Z,100226.91
2022-12-12T07:03:52.146Z,100232.41
2022-12-12T07:06:21.599Z,100236.34
2022-12-12T07:08:49.354Z,100232.44
2022-12-12T07:11:20.390Z,100233.06
2022-12-12T07:13:47.483Z,100242.72
2022-12-12T07:16:15.302Z,100233.59
2022-12-12T07:18:42.714Z,100239.94
2022-12-12T07:21:13.966Z,100240.31
2022-12-12T07:23:41.027Z,100250.13
2022-12-12T07:26:14.503Z,100252.59
2022-12-12T07:28:41.816Z,100254.97
2022-12-12T07:31:13.923Z,100255.97
2022-12-12T07:33:44.153Z,100265.44
2022-12-12T07:36:13.386Z,100273.06
2022-12-12T07:38:40.567Z,100264.44
2022-12-12T07:41:12.035Z,100266.41
2022-12-12T07:43:44.341Z,100271.75
2022-12-12T07:46:20.147Z,100275.13
2022-12-12T07:48:47.743Z,100272.13
2022-12-12T07:51:15.343Z,100263.84
2022-12-12T07:53:42.662Z,100265.41
2022-12-12T07:56:13.134Z,100273.66
2022-12-12T07:58:40.543Z,100276.88
2022-12-12T08:01:21.452Z,100278.69
2022-12-12T08:03:49.856Z,100273.19
2022-12-12T08:06:18.897Z,100281.84
2022-12-12T08:08:47.417Z,100285.31
2022-12-12T08:11:19.474Z,100286.69
2022-12-12T08:13:46.781Z,100288.94
2022-12-12T08:16:26.655Z,100285.44
2022-12-12T08:18:56.231Z,100291.25
2022-12-12T08:21:26.098Z,100288.38
2022-12-12T08:24:02.493Z,100284.78
2022-12-12T08:26:30.457Z,100280.81
2022-12-12T08:28:57.776Z,100282.41
2022-12-12T08:31:25.898Z,100289.09
2022-12-12T08:33:53.245Z,100286.22
2022-12-12T08:36:26.715Z,100292.38
2022-12-12T08:38:53.572Z,100298.66
2022-12-12T08:41:28.419Z,100291.97
2022-12-12T08:43:55.355Z,100295.63
2022-12-12T08:46:23.262Z,100304.97
2022-12-12T08:48:50.339Z,100310.00
2022-12-12T08:51:18.532Z,100304.97
2022-12-12T08:53:47.085Z,100311.91
2022-12-12T08:56:15.071Z,100314.13
2022-12-12T08:58:43.801Z,100312.94
2022-12-12T09:01:16.141Z,100306.50
2022-12-12T09:03:43.087Z,100320.41
2022-12-12T09:06:10.894Z,100321.00
2022-12-12T09:08:38.952Z,100318.44
2022-12-12T09:11:06.388Z,100316.13
2022-12-12T09:13:33.730Z,100327.50
2022-12-12T09:16:00.728Z,100325.69
2022-12-12T09:18:28.324Z,100320.38
2022-12-12T09:20:59.005Z,100320.72
2022-12-12T09:23:28.681Z,100327.88
2022-12-12T09:25:55.833Z,100324.47
2022-12-12T09:28:25.391Z,100333.19
2022-12-12T09:30:52.374Z,100332.47
2022-12-12T09:33:19.992Z,100340.44
2022-12-12T09:35:46.942Z,100338.22
2022-12-12T09:38:15.014Z,100331.03
2022-12-12T09:41:10.894Z,100334.56
2022-12-12T09:43:39.475Z,100337.19
2022-12-12T09:46:25.930Z,100339.06
2022-12-12T09:48:53.972Z,100332.13
2022-12-12T09:51:20.799Z,100327.91
2022-12-12T09:53:47.813Z,100327.59
2022-12-12T09:56:44.755Z,100321.84
2022-12-12T09:59:30.717Z,100324.63
2022-12-12T10:02:21.929Z,100330.19
2022-12-12T10:05:28.461Z,100322.72
2022-12-12T10:08:21.882Z,100324.06
2022-12-12T10:13:31.916Z,100320.91
2022-12-12T10:16:12.764Z,100322.00
2022-12-12T10:18:48.440Z,100317.47
2022-12-12T10:21:23.769Z,100325.81
2022-12-12T10:24:02.162Z,100320.28
2022-12-12T10:26:30.793Z,100322.72
2022-12-12T10:29:22.066Z,100318.34
2022-12-12T10:32:42.326Z,100319.81
2022-12-12T10:35:29.203Z,100312.06
2022-12-12T10:38:41.572Z,100314.34
2022-12-12T10:41:36.261Z,100320.19
2022-12-12T10:44:52.262Z,100310.41
2022-12-12T10:47:19.388Z,100311.50
2022-12-12T10:49:46.237Z,100315.44
2022-12-12T10:52:22.685Z,100322.56
2022-12-12T10:55:00.075Z,100321.47
2022-12-12T10:57:29.551Z,100324.78
2022-12-12T10:59:58.593Z,100322.53
2022-12-12T11:02:39.866Z,100320.75
2022-12-12T11:05:17.563Z,100317.72
2022-12-12T11:08:07.899Z,100317.34
2022-12-12T11:10:38.361Z,100319.50
2022-12-12T11:13:11.345Z,100317.25
2022-12-12T11:16:13.764Z,100322.88
2022-12-12T11:18:41.138Z,100324.41
2022-12-12T11:21:10.009Z,100316.06
2022-12-12T11:23:55.515Z,100320.44
2022-12-12T11:26:22.765Z,100319.31
2022-12-12T11:28:59.802Z,100307.59
2022-12-12T11:31:31.774Z,100308.72
2022-12-12T11:34:06.265Z,100311.38
2022-12-12T11:36:37.616Z,100307.94
2022-12-12T11:39:28.839Z,100313.53
2022-12-12T11:42:16.999Z,100308.69
2022-12-12T11:44:45.642Z,100308.09
2022-12-12T11:47:23.959Z,100309.16
2022-12-12T11:50:00.234Z,100310.34
2022-12-12T11:52:32.868Z,100315.16
2022-12-12T11:55:00.764Z,100312.41
2022-12-12T11:57:33.496Z,100313.78
2022-12-12T12:00:11.887Z,100316.50
2022-12-12T12:03:15.134Z,100308.72
2022-12-12T12:06:02.295Z,100308.78
2022-12-12T12:08:58.895Z,100304.22
2022-12-12T12:11:45.678Z,100302.69
2022-12-12T12:14:36.511Z,100298.59
2022-12-12T12:17:16.093Z,100294.94
2022-12-12T12:20:16.751Z,100293.63
2022-12-12T12:23:30.498Z,100296.72
2022-12-12T12:26:42.051Z,100295.56
2022-12-12T12:29:57.073Z,100292.72
2022-12-12T12:32:58.893Z,100297.97
2022-12-12T12:35:32.276Z,100299.00
2022-12-12T12:38:20.963Z,100293.22
2022-12-12T12:41:24.154Z,100290.22
2022-12-12T12:44:34.156Z,100288.41
2022-12-12T12:47:13.313Z,100290.09
2022-12-12T12:50:06.162Z,100287.28
2022-12-12T12:52:46.097Z,100279.66
2022-12-12T12:55:21.373Z,100281.19
2022-12-12T12:57:50.579Z,100274.69
2022-12-12T13:00:23.679Z,100280.50
2022-12-12T13:03:07.786Z,100280.34
2022-12-12T13:05:53.000Z,100279.66
2022-12-12T13:08:34.866Z,100276.88
2022-12-12T13:11:14.838Z,100279.78
2022-12-12T13:13:44.917Z,100277.00
2022-12-12T13:16:18.487Z,100278.03
2022-12-12T13:18:50.551Z,100277.00
2022-12-12T13:21:40.935Z,100269.34
2022-12-12T13:24:28.262Z,100269.06
2022-12-12T13:27:21.408Z,100269.19
2022-12-12T13:29:53.819Z,100265.38
2022-12-12T13:32:23.668Z,100276.88
2022-12-12T13:34:59.680Z,100273.66
2022-12-12T13:37:29.730Z,100274.41
2022-12-12T13:40:07.128Z,100267.53
2022-12-12T13:43:05.719Z,100265.28
2022-12-12T13:45:39.171Z,100267.69
2022-12-12T13:48:34.185Z,100260.28
2022-12-12T13:51:30.227Z,100255.97
2022-12-12T13:54:13.669Z,100251.72
2022-12-12T13:56:52.898Z,100263.47
2022-12-12T13:59:22.421Z,100260.84
2022-12-12T14:02:01.438Z,100255.50
2022-12-12T14:04:43.823Z,100254.03
2022-12-12T14:07:18.029Z,100258.03
2022-12-12T14:09:56.839Z,100246.22
2022-12-12T14:12:31.568Z,100241.44
2022-12-12T14:15:00.210Z,100255.00
2022-12-12T14:17:30.431Z,100251.25
2022-12-12T14:19:59.407Z,100247.47
2022-12-12T14:22:46.403Z,100248.19
2022-12-12T14:25:17.151Z,100259.34
2022-12-12T14:27:49.909Z,100253.94
2022-12-12T14:30:44.943Z,100254.41
2022-12-12T14:33:17.774Z,100253.66
2022-12-12T14:36:03.870Z,100246.56
2022-12-12T14:38:46.872Z,100247.81
2022-12-12T14:41:21.237Z,100247.19
2022-12-12T14:44:37.421Z,100250.25
2022-12-12T14:46:43.574Z,100259.53
2022-12-12T14:49:16.410Z,100252.81
2022-12-12T14:51:45.775Z,100252.13
2022-12-12T14:54:19.463Z,100252.03
2022-12-12T14:56:52.964Z,100267.69
2022-12-12T14:59:23.035Z,100266.63
2022-12-12T15:02:25.776Z,100268.31
2022-12-12T15:05:04.353Z,100267.25
2022-12-12T15:07:41.049Z,100263.69
2022-12-12T15:10:27.472Z,100257.84
2022-12-12T15:12:54.546Z,100265.44
2022-12-12T15:15:27.456Z,100269.66
2022-12-12T15:17:57.092Z,100262.72
2022-12-12T15:20:30.415Z,100260.13
2022-12-12T15:23:07.409Z,100257.13
2022-12-12T15:25:47.278Z,100257.63
2022-12-12T15:28:19.294Z,100250.63
2022-12-12T15:30:50.148Z,100249.34
2022-12-12T15:33:23.708Z,100252.19
2022-12-12T15:36:05.222Z,100249.03
2022-12-12T15:38:33.680Z,100242.72
2022-12-12T15:41:06.668Z,100237.59
2022-12-12T15:43:37.274Z,100239.00
2022-12-12T15:46:14.144Z,100239.75
2022-12-12T15:48:49.695Z,100239.00
2022-12-12T15:51:24.288Z,100245.44
2022-12-12T15:53:53.220Z,100240.16
2022-12-12T15:56:19.919Z,100246.63
2022-12-12T15:58:49.711Z,100251.25
2022-12-12T16:01:20.766Z,100252.88
2022-12-12T16:04:09.828Z,100255.38
2022-12-12T16:06:45.904Z,100259.06
2022-12-12T16:09:27.660Z,100258.25
2022-12-12T16:11:56.181Z,100259.50
2022-12-12T16:14:41.662Z,100261.59
2022-12-12T16:17:24.084Z,100268.75
2022-12-12T16:20:13.862Z,100266.00
2022-12-12T16:22:48.276Z,100265.41
2022-12-12T16:25:23.661Z,100270.38
2022-12-12T16:28:08.111Z,100268.94
2022-12-12T16:30:37.012Z,100266.38
2022-12-12T16:33:38.960Z,100272.50
2022-12-12T16:36:13.006Z,100275.09
2022-12-12T16:38:41.140Z,100274.22
2022-12-12T16:41:13.186Z,100274.50
2022-12-12T16:43:40.476Z,100278.56
2022-12-12T16:46:21.143Z,100275.94
2022-12-12T16:48:48.287Z,100276.66
2022-12-12T16:51:28.366Z,100270.03
2022-12-12T16:53:55.542Z,100271.22
2022-12-12T16:56:22.711Z,100280.56
2022-12-12T16:58:50.475Z,100268.72
2022-12-12T17:01:17.389Z,100275.66
2022-12-12T17:03:44.267Z,100274.50
2022-12-12T17:06:11.358Z,100283.06
2022-12-12T17:08:38.594Z,100283.97
2022-12-12T17:11:10.055Z,100293.41
2022-12-12T17:13:48.317Z,100281.44
2022-12-12T17:16:16.082Z,100288.25
2022-12-12T17:18:42.935Z,100280.38
2022-12-12T17:21:09.836Z,100283.97
2022-12-12T17:23:36.724Z,100286.47
2022-12-12T17:26:04.933Z,100292.13
2022-12-12T17:28:34.033Z,100287.25
2022-12-12T17:31:02.225Z,100287.66
2022-12-12T17:33:29.072Z,100283.41
2022-12-12T17:36:01.686Z,100278.16
2022-12-12T17:38:30.601Z,100285.56
2022-12-12T17:40:58.594Z,100281.56
2022-12-12T17:43:26.089Z,100279.94
2022-12-12T17:46:05.434Z,100283.22
2022-12-12T17:48:35.114Z,100287.75
2022-12-12T17:51:05.591Z,100278.16
2022-12-12T17:53:38.600Z,100290.13
2022-12-12T17:56:17.747Z,100275.25
2022-12-12T17:58:47.495Z,100282.34
2022-12-12T18:01:31.544Z,100275.59
2022-12-12T18:04:01.210Z,100286.03
2022-12-12T18:06:31.552Z,100274.03
2022-12-12T18:08:58.762Z,100283.47
2022-12-12T18:11:32.824Z,100277.63
2022-12-12T18:14:07.725Z,100273.97
2022-12-12T18:16:43.489Z,100272.34
2022-12-12T18:19:38.589Z,100277.38
2022-12-12T18:22:05.428Z,100273.97
2022-12-12T18:24:33.082Z,100277.69
2022-12-12T18:27:03.293Z,100283.00
2022-12-12T18:29:30.229Z,100275.72
2022-12-12T18:32:00.064Z,100270.19
2022-12-12T18:34:30.918Z,100272.94
2022-12-12T18:36:59.141Z,100275.72
2022-12-12T18:39:26.066Z,100278.81
2022-12-12T18:41:52.930Z,100275.38
2022-12-12T18:44:19.830Z,100269.38
2022-12-12T18:46:48.011Z,100273.06
2022-12-12T18:49:15.967Z,100271.97
2022-12-12T18:51:44.657Z,100268.03
2022-12-12T18:54:15.350Z,100274.25
2022-12-12T18:56:45.673Z,100275.97
2022-12-12T18:59:13.409Z,100273.53
2022-12-12T19:01:40.295Z,100276.88
2022-12-12T19:04:12.537Z,100279.28
2022-12-12T19:06:43.004Z,100276.97
2022-12-12T19:09:16.299Z,100278.66
2022-12-12T19:11:44.298Z,100283.41
2022-12-12T19:14:13.375Z,100285.47
2022-12-12T19:16:40.770Z,100292.44
2022-12-12T19:19:09.563Z,100295.84
2022-12-12T19:21:37.439Z,100291.16
2022-12-12T19:24:09.094Z,100292.38
2022-12-12T19:26:37.563Z,100290.22
2022-12-12T19:29:12.298Z,100294.00
2022-12-12T19:31:40.152Z,100293.38
2022-12-12T19:34:09.073Z,100287.09
2022-12-12T19:36:36.109Z,100290.81
2022-12-12T19:39:06.632Z,100286.31
2022-12-12T19:41:35.164Z,100294.78
2022-12-12T19:44:04.222Z,100291.69
2022-12-12T19:46:32.786Z,100282.94
2022-12-12T19:49:07.251Z,100290.66
2022-12-12T19:51:37.288Z,100289.88
2022-12-12T19:54:09.036Z,100291.03
2022-12-12T19:56:38.368Z,100284.09
2022-12-12T19:59:05.283Z,100279.06
2022-12-12T20:01:35.188Z,100291.75
2022-12-12T20:04:12.302Z,100285.88
2022-12-12T20:06:45.597Z,100287.56
2022-12-12T20:09:19.915Z,100292.97
2022-12-12T20:11:47.705Z,100283.72
2022-12-12T20:14:21.736Z,100284.66
2022-12-12T20:16:50.273Z,100282.84
2022-12-12T20:19:17.969Z,100281.31
2022-12-12T20:22:03.268Z,100292.53
2022-12-12T20:24:33.182Z,100295.25
2022-12-12T20:27:03.058Z,100289.50
2022-12-12T20:29:29.995Z,100293.78
2022-12-12T20:31:59.561Z,100295.50
2022-12-12T20:34:26.466Z,100282.88
2022-12-12T20:36:55.522Z,100283.69
2022-12-12T20:39:24.626Z,100289.72
2022-12-12T20:41:56.561Z,100273.63
2022-12-12T20:44:28.895Z,100280.81
2022-12-12T20:46:55.721Z,100279.84
2022-12-12T20:49:23.804Z,100271.28
2022-12-12T20:51:55.767Z,100279.97
2022-12-12T20:54:25.971Z,100281.03
2022-12-12T20:56:54.392Z,100281.03
2022-12-12T20:59:21.436Z,100271.84
2022-12-12T21:01:48.366Z,100278.47
2022-12-12T21:04:15.621Z,100276.31
2022-12-12T21:06:47.707Z,100271.38
2022-12-12T21:09:19.428Z,100266.84
2022-12-12T21:11:49.823Z,100276.31
2022-12-12T21:14:16.937Z,100271.13
2022-12-12T21:16:43.870Z,100272.22
2022-12-12T21:19:13.580Z,100268.84
2022-12-12T21:21:43.421Z,100277.19
2022-12-12T21:24:12.698Z,100270.19
2022-12-12T21:26:39.612Z,100276.69
2022-12-12T21:29:06.780Z,100273.13
2022-12-12T21:31:38.615Z,100269.06
2022-12-12T21:34:06.361Z,100272.19
2022-12-12T21:36:34.323Z,100271.28
2022-12-12T21:39:03.460Z,100267.00
2022-12-12T21:41:30.384Z,100257.97
2022-12-12T21:43:59.502Z,100267.09
2022-12-12T21:46:28.385Z,100257.75
2022-12-12T21:49:15.849Z,100264.44
2022-12-12T21:51:43.228Z,100251.81
2022-12-12T21:54:12.817Z,100249.28
2022-12-12T21:56:40.990Z,100256.00
2022-12-12T21:59:08.522Z,100254.13
2022-12-12T22:01:35.455Z,100258.66
2022-12-12T22:04:02.758Z,100257.03
2022-12-12T22:06:32.740Z,100250.28
2022-12-12T22:09:01.848Z,100255.53
2022-12-12T22:11:41.851Z,100259.94
2022-12-12T22:14:20.115Z,100257.13
2022-12-12T22:16:46.927Z,100252.16
2022-12-12T22:19:15.919Z,100253.09
2022-12-12T22:21:46.352Z,100245.56
2022-12-12T22:24:13.875Z,100250.56
2022-12-12T22:26:45.429Z,100242.25
2022-12-12T22:29:16.188Z,100240.19
2022-12-12T22:31:44.683Z,100236.72
2022-12-12T22:34:18.016Z,100243.75
2022-12-12T22:36:46.163Z,100238.09
2022-12-12T22:39:17.793Z,100241.38
2022-12-12T22:41:45.650Z,100240.84
2022-12-12T22:44:15.982Z,100242.44
2022-12-12T22:46:44.990Z,100237.50
2022-12-12T22:49:14.972Z,100244.13
2022-12-12T22:51:42.930Z,100239.53
2022-12-12T22:54:09.888Z,100232.19
2022-12-12T22:56:38.360Z,100236.72
2022-12-12T22:59:06.676Z,100235.84
2022-12-12T23:01:33.956Z,100237.03
2022-12-12T23:04:01.194Z,100230.91
2022-12-12T23:06:33.912Z,100226.63
2022-12-12T23:09:07.269Z,100228.84
2022-12-12T23:11:35.622Z,100228.31
2022-12-12T23:14:09.257Z,100229.31
2022-12-12T23:16:36.470Z,100219.22
2022-12-12T23:19:05.807Z,100223.13
2022-12-12T23:21:34.754Z,100226.72
2022-12-12T23:24:02.861Z,100221.88
2022-12-12T23:26:35.149Z,100222.41
2022-12-12T23:29:02.770Z,100216.34
2022-12-12T23:31:32.734Z,100216.69
2022-12-12T23:34:05.542Z,100208.75
2022-12-12T23:36:32.713Z,100213.28
2022-12-12T23:39:03.993Z,100207.00
2022-12-12T23:41:30.819Z,100200.03
2022-12-12T23:43:57.747Z,100205.69
2022-12-12T23:46:28.439Z,100203.91
2022-12-12T23:49:01.701Z,100201.22
2022-12-12T23:51:36.145Z,100191.91
2022-12-12T23:54:06.973Z,100191.78
2022-12-12T23:56:34.008Z,100193.47
2022-12-12T23:59:01.120Z,100183.44
